sensor_id;sensor_type;location;lat;lon;timestamp;pressure;altitude;pressure_sealevel;temperature;humidity
41044;BME280;51680;49.806;18.774;2023-03-22T00:01:29;97283.97;;;9.31;83.40
41044;BME280;51680;49.806;18.774;2023-03-22T00:04:33;97282.09;;;9.33;83.00
41044;BME280;51680;49.806;18.774;2023-03-22T00:07:35;97274.75;;;9.26;83.10
41044;BME280;51680;49.806;18.774;2023-03-22T00:10:59;97280.41;;;9.18;83.17
41044;BME280;51680;49.806;18.774;2023-03-22T00:14:01;97281.91;;;9.22;82.88
41044;BME280;51680;49.806;18.774;2023-03-22T00:17:02;97273.16;;;9.23;82.89
41044;BME280;51680;49.806;18.774;2023-03-22T00:20:07;97271.41;;;9.24;82.64
41044;BME280;51680;49.806;18.774;2023-03-22T00:23:09;97263.31;;;9.14;83.35
41044;BME280;51680;49.806;18.774;2023-03-22T00:26:13;97255.38;;;9.02;83.63
41044;BME280;51680;49.806;18.774;2023-03-22T00:29:15;97255.69;;;8.97;83.68
41044;BME280;51680;49.806;18.774;2023-03-22T00:32:19;97254.00;;;8.96;83.66
41044;BME280;51680;49.806;18.774;2023-03-22T00:35:22;97251.94;;;8.87;84.24
41044;BME280;51680;49.806;18.774;2023-03-22T00:38:24;97243.75;;;8.79;84.48
41044;BME280;51680;49.806;18.774;2023-03-22T00:41:33;97237.41;;;8.69;85.00
41044;BME280;51680;49.806;18.774;2023-03-22T00:44:35;97229.78;;;8.66;85.26
41044;BME280;51680;49.806;18.774;2023-03-22T00:47:37;97233.84;;;8.56;85.63
41044;BME280;51680;49.806;18.774;2023-03-22T00:50:40;97226.63;;;8.47;86.23
41044;BME280;51680;49.806;18.774;2023-03-22T00:53:42;97222.88;;;8.51;85.87
41044;BME280;51680;49.806;18.774;2023-03-22T00:56:45;97218.25;;;8.56;85.46
41044;BME280;51680;49.806;18.774;2023-03-22T00:59:49;97220.69;;;8.59;84.83
41044;BME280;51680;49.806;18.774;2023-03-22T01:02:53;97239.78;;;8.74;84.80
41044;BME280;51680;49.806;18.774;2023-03-22T01:06:06;97246.00;;;8.99;82.19
41044;BME280;51680;49.806;18.774;2023-03-22T01:09:08;97234.69;;;9.14;81.43
41044;BME280;51680;49.806;18.774;2023-03-22T01:12:16;97229.56;;;9.27;80.57
41044;BME280;51680;49.806;18.774;2023-03-22T01:15:18;97221.91;;;9.38;80.06
41044;BME280;51680;49.806;18.774;2023-03-22T01:18:22;97227.59;;;9.44;79.81
41044;BME280;51680;49.806;18.774;2023-03-22T01:21:25;97226.47;;;9.48;79.67
41044;BME280;51680;49.806;18.774;2023-03-22T01:24:27;97223.56;;;9.53;79.22
41044;BME280;51680;49.806;18.774;2023-03-22T01:27:29;97221.41;;;9.59;79.09
41044;BME280;51680;49.806;18.774;2023-03-22T01:30:31;97209.66;;;9.66;79.35
41044;BME280;51680;49.806;18.774;2023-03-22T01:33:32;97214.38;;;9.74;78.73
41044;BME280;51680;49.806;18.774;2023-03-22T01:36:36;97204.63;;;9.77;78.26
41044;BME280;51680;49.806;18.774;2023-03-22T01:39:38;97213.16;;;9.79;77.98
41044;BME280;51680;49.806;18.774;2023-03-22T01:42:42;97194.91;;;9.79;77.92
41044;BME280;51680;49.806;18.774;2023-03-22T01:45:50;97197.34;;;9.82;77.60
41044;BME280;51680;49.806;18.774;2023-03-22T01:48:53;97197.13;;;9.85;77.24
41044;BME280;51680;49.806;18.774;2023-03-22T01:51:59;97187.19;;;9.78;77.17
41044;BME280;51680;49.806;18.774;2023-03-22T01:55:10;97191.09;;;9.58;77.45
41044;BME280;51680;49.806;18.774;2023-03-22T01:58:17;97185.41;;;9.52;77.50
41044;BME280;51680;49.806;18.774;2023-03-22T02:01:29;97182.94;;;9.36;78.03
41044;BME280;51680;49.806;18.774;2023-03-22T02:04:36;97179.97;;;9.28;77.86
41044;BME280;51680;49.806;18.774;2023-03-22T02:07:42;97180.81;;;9.29;77.95
41044;BME280;51680;49.806;18.774;2023-03-22T02:10:45;97176.31;;;9.31;77.87
41044;BME280;51680;49.806;18.774;2023-03-22T02:14:03;97175.22;;;9.35;77.49
41044;BME280;51680;49.806;18.774;2023-03-22T02:17:42;97167.69;;;9.30;77.64
41044;BME280;51680;49.806;18.774;2023-03-22T02:25:08;97174.13;;;8.83;79.34
41044;BME280;51680;49.806;18.774;2023-03-22T02:28:28;97166.44;;;8.81;79.33
41044;BME280;51680;49.806;18.774;2023-03-22T02:31:57;97168.28;;;8.79;79.40
41044;BME280;51680;49.806;18.774;2023-03-22T02:35:30;97167.25;;;8.82;79.51
41044;BME280;51680;49.806;18.774;2023-03-22T02:39:10;97165.13;;;8.88;79.35
41044;BME280;51680;49.806;18.774;2023-03-22T02:42:36;97162.91;;;8.96;78.96
41044;BME280;51680;49.806;18.774;2023-03-22T02:45:45;97149.59;;;9.01;78.74
41044;BME280;51680;49.806;18.774;2023-03-22T02:48:53;97159.75;;;8.91;78.92
41044;BME280;51680;49.806;18.774;2023-03-22T02:52:00;97160.47;;;8.79;79.20
41044;BME280;51680;49.806;18.774;2023-03-22T02:55:09;97161.03;;;8.70;79.71
41044;BME280;51680;49.806;18.774;2023-03-22T02:58:15;97155.63;;;8.59;80.01
41044;BME280;51680;49.806;18.774;2023-03-22T03:01:22;97159.16;;;8.44;80.27
41044;BME280;51680;49.806;18.774;2023-03-22T03:04:28;97157.38;;;8.31;80.89
41044;BME280;51680;49.806;18.774;2023-03-22T03:07:32;97160.00;;;8.15;81.76
41044;BME280;51680;49.806;18.774;2023-03-22T03:10:37;97158.78;;;8.07;81.97
41044;BME280;51680;49.806;18.774;2023-03-22T03:13:40;97159.09;;;8.01;82.26
41044;BME280;51680;49.806;18.774;2023-03-22T03:16:42;97166.31;;;7.96;82.63
41044;BME280;51680;49.806;18.774;2023-03-22T03:19:52;97177.56;;;7.96;82.64
41044;BME280;51680;49.806;18.774;2023-03-22T03:23:01;97163.88;;;7.79;83.55
41044;BME280;51680;49.806;18.774;2023-03-22T03:26:16;97169.28;;;7.90;82.67
41044;BME280;51680;49.806;18.774;2023-03-22T03:29:28;97175.78;;;7.97;82.45
41044;BME280;51680;49.806;18.774;2023-03-22T03:32:34;97183.19;;;8.04;81.96
41044;BME280;51680;49.806;18.774;2023-03-22T03:35:46;97173.69;;;8.03;82.27
41044;BME280;51680;49.806;18.774;2023-03-22T03:38:51;97180.75;;;8.01;81.94
41044;BME280;51680;49.806;18.774;2023-03-22T03:41:56;97179.97;;;7.99;81.99
41044;BME280;51680;49.806;18.774;2023-03-22T03:45:00;97182.25;;;8.05;81.47
41044;BME280;51680;49.806;18.774;2023-03-22T03:48:06;97175.84;;;8.11;81.35
41044;BME280;51680;49.806;18.774;2023-03-22T03:51:11;97176.53;;;8.14;81.00
41044;BME280;51680;49.806;18.774;2023-03-22T03:54:12;97179.38;;;8.25;80.59
41044;BME280;51680;49.806;18.774;2023-03-22T03:57:16;97189.25;;;8.34;80.22
41044;BME280;51680;49.806;18.774;2023-03-22T04:00:18;97180.22;;;8.40;79.77
41044;BME280;51680;49.806;18.774;2023-03-22T04:03:52;97180.34;;;8.38;80.38
41044;BME280;51680;49.806;18.774;2023-03-22T04:07:03;97184.75;;;8.36;80.56
41044;BME280;51680;49.806;18.774;2023-03-22T04:10:08;97181.59;;;8.31;80.83
41044;BME280;51680;49.806;18.774;2023-03-22T04:13:11;97187.72;;;8.30;81.21
41044;BME280;51680;49.806;18.774;2023-03-22T04:16:13;97186.31;;;8.25;81.18
41044;BME280;51680;49.806;18.774;2023-03-22T04:19:16;97188.25;;;8.21;81.52
41044;BME280;51680;49.806;18.774;2023-03-22T04:22:18;97187.25;;;8.24;81.49
41044;BME280;51680;49.806;18.774;2023-03-22T04:25:20;97184.03;;;8.19;81.48
41044;BME280;51680;49.806;18.774;2023-03-22T04:28:34;97183.41;;;8.15;81.93
41044;BME280;51680;49.806;18.774;2023-03-22T04:31:36;97191.16;;;8.01;82.20
41044;BME280;51680;49.806;18.774;2023-03-22T04:34:55;97184.28;;;8.00;82.27
41044;BME280;51680;49.806;18.774;2023-03-22T04:37:57;97182.78;;;7.96;82.73
41044;BME280;51680;49.806;18.774;2023-03-22T04:41:01;97194.91;;;7.96;82.59
41044;BME280;51680;49.806;18.774;2023-03-22T04:44:11;97183.69;;;7.95;82.81
41044;BME280;51680;49.806;18.774;2023-03-22T04:47:19;97179.06;;;8.00;82.41
41044;BME280;51680;49.806;18.774;2023-03-22T04:50:21;97187.88;;;7.98;83.08
41044;BME280;51680;49.806;18.774;2023-03-22T04:53:27;97195.41;;;8.02;83.40
41044;BME280;51680;49.806;18.774;2023-03-22T04:56:34;97194.81;;;8.28;82.27
41044;BME280;51680;49.806;18.774;2023-03-22T04:59:37;97186.44;;;8.37;81.59
41044;BME280;51680;49.806;18.774;2023-03-22T05:02:39;97185.72;;;8.49;81.25
41044;BME280;51680;49.806;18.774;2023-03-22T05:05:49;97185.81;;;8.48;81.11
41044;BME280;51680;49.806;18.774;2023-03-22T05:08:52;97177.06;;;8.49;81.40
41044;BME280;51680;49.806;18.774;2023-03-22T05:11:55;97179.22;;;8.56;81.12
41044;BME280;51680;49.806;18.774;2023-03-22T05:15:08;97181.38;;;8.64;80.69
41044;BME280;51680;49.806;18.774;2023-03-22T05:18:12;97176.47;;;8.73;80.62
41044;BME280;51680;49.806;18.774;2023-03-22T05:21:16;97178.31;;;8.85;80.28
41044;BME280;51680;49.806;18.774;2023-03-22T05:24:22;97174.13;;;8.97;79.52
41044;BME280;51680;49.806;18.774;2023-03-22T05:27:25;97183.72;;;9.10;79.30
41044;BME280;51680;49.806;18.774;2023-03-22T05:30:42;97180.56;;;9.19;79.07
41044;BME280;51680;49.806;18.774;2023-03-22T05:34:00;97181.66;;;9.29;78.81
41044;BME280;51680;49.806;18.774;2023-03-22T05:37:04;97181.50;;;9.45;78.18
41044;BME280;51680;49.806;18.774;2023-03-22T05:40:18;97184.94;;;9.59;77.96
41044;BME280;51680;49.806;18.774;2023-03-22T05:43:20;97179.69;;;9.73;77.33
41044;BME280;51680;49.806;18.774;2023-03-22T05:46:25;97178.25;;;9.82;76.66
41044;BME280;51680;49.806;18.774;2023-03-22T05:49:46;97179.22;;;9.93;76.37
41044;BME280;51680;49.806;18.774;2023-03-22T05:52:49;97177.22;;;10.11;76.14
41044;BME280;51680;49.806;18.774;2023-03-22T05:55:54;97178.19;;;10.22;76.01
41044;BME280;51680;49.806;18.774;2023-03-22T05:59:02;97181.69;;;10.35;75.55
41044;BME280;51680;49.806;18.774;2023-03-22T06:02:06;97183.53;;;10.46;75.04
41044;BME280;51680;49.806;18.774;2023-03-22T06:05:09;97185.44;;;10.56;74.58
41044;BME280;51680;49.806;18.774;2023-03-22T06:08:12;97187.75;;;10.48;75.05
41044;BME280;51680;49.806;18.774;2023-03-22T06:11:14;97189.63;;;10.46;75.17
41044;BME280;51680;49.806;18.774;2023-03-22T06:14:15;97181.09;;;10.57;75.41
41044;BME280;51680;49.806;18.774;2023-03-22T06:17:40;97179.94;;;10.61;75.21
41044;BME280;51680;49.806;18.774;2023-03-22T06:20:45;97184.84;;;10.65;75.20
41044;BME280;51680;49.806;18.774;2023-03-22T06:23:52;97185.16;;;10.73;75.04
41044;BME280;51680;49.806;18.774;2023-03-22T06:26:56;97187.78;;;10.73;75.15
41044;BME280;51680;49.806;18.774;2023-03-22T06:29:58;97185.47;;;10.81;75.15
41044;BME280;51680;49.806;18.774;2023-03-22T06:33:01;97188.59;;;10.86;74.74
41044;BME280;51680;49.806;18.774;2023-03-22T06:36:07;97193.19;;;10.95;74.58
41044;BME280;51680;49.806;18.774;2023-03-22T06:39:18;97197.59;;;11.07;74.78
41044;BME280;51680;49.806;18.774;2023-03-22T06:42:20;97192.13;;;11.23;73.76
41044;BME280;51680;49.806;18.774;2023-03-22T06:45:31;97197.66;;;11.31;73.98
41044;BME280;51680;49.806;18.774;2023-03-22T06:48:37;97192.28;;;11.45;73.83
41044;BME280;51680;49.806;18.774;2023-03-22T06:51:43;97188.41;;;11.50;73.76
41044;BME280;51680;49.806;18.774;2023-03-22T06:54:45;97192.69;;;11.64;73.29
41044;BME280;51680;49.806;18.774;2023-03-22T06:57:48;97193.94;;;11.71;73.21
41044;BME280;51680;49.806;18.774;2023-03-22T07:00:49;97196.72;;;11.80;72.67
41044;BME280;51680;49.806;18.774;2023-03-22T07:03:57;97198.06;;;11.86;72.57
41044;BME280;51680;49.806;18.774;2023-03-22T07:06:58;97199.28;;;11.93;71.96
41044;BME280;51680;49.806;18.774;2023-03-22T07:10:01;97198.31;;;11.94;72.54
41044;BME280;51680;49.806;18.774;2023-03-22T07:13:03;97189.41;;;11.96;72.35
41044;BME280;51680;49.806;18.774;2023-03-22T07:16:08;97196.28;;;12.10;72.09
41044;BME280;51680;49.806;18.774;2023-03-22T07:19:18;97186.72;;;12.32;71.54
41044;BME280;51680;49.806;18.774;2023-03-22T07:22:21;97195.47;;;12.44;71.62
41044;BME280;51680;49.806;18.774;2023-03-22T07:25:26;97193.03;;;12.64;71.15
41044;BME280;51680;49.806;18.774;2023-03-22T07:28:37;97180.53;;;12.79;70.96
41044;BME280;51680;49.806;18.774;2023-03-22T07:31:41;97184.50;;;12.84;70.33
41044;BME280;51680;49.806;18.774;2023-03-22T07:34:51;97182.94;;;12.93;69.91
41044;BME280;51680;49.806;18.774;2023-03-22T07:37:53;97182.66;;;13.08;69.73
41044;BME280;51680;49.806;18.774;2023-03-22T07:41:01;97181.34;;;13.25;69.42
41044;BME280;51680;49.806;18.774;2023-03-22T07:44:20;97182.16;;;13.36;68.92
41044;BME280;51680;49.806;18.774;2023-03-22T07:47:41;97195.50;;;13.44;68.65
41044;BME280;51680;49.806;18.774;2023-03-22T07:51:08;97184.41;;;13.63;68.26
41044;BME280;51680;49.806;18.774;2023-03-22T07:54:10;97187.38;;;13.69;67.18
41044;BME280;51680;49.806;18.774;2023-03-22T07:57:12;97183.75;;;13.81;67.98
41044;BME280;51680;49.806;18.774;2023-03-22T08:00:20;97186.38;;;13.81;67.77
41044;BME280;51680;49.806;18.774;2023-03-22T08:04:00;97179.56;;;13.90;66.62
41044;BME280;51680;49.806;18.774;2023-03-22T08:07:15;97174.88;;;14.04;67.29
41044;BME280;51680;49.806;18.774;2023-03-22T08:10:19;97170.31;;;14.17;67.24
41044;BME280;51680;49.806;18.774;2023-03-22T08:13:22;97170.28;;;14.28;67.05
41044;BME280;51680;49.806;18.774;2023-03-22T08:16:24;97175.28;;;14.52;66.66
41044;BME280;51680;49.806;18.774;2023-03-22T08:19:26;97173.88;;;14.68;66.26
41044;BME280;51680;49.806;18.774;2023-03-22T08:22:29;97172.91;;;14.90;66.18
41044;BME280;51680;49.806;18.774;2023-03-22T08:25:54;97176.22;;;15.12;66.11
41044;BME280;51680;49.806;18.774;2023-03-22T08:28:55;97172.09;;;15.19;65.44
41044;BME280;51680;49.806;18.774;2023-03-22T08:31:59;97167.56;;;15.51;64.28
41044;BME280;51680;49.806;18.774;2023-03-22T08:35:04;97160.75;;;15.98;63.22
41044;BME280;51680;49.806;18.774;2023-03-22T08:38:07;97156.31;;;17.39;61.07
41044;BME280;51680;49.806;18.774;2023-03-22T08:41:18;97155.25;;;18.74;57.14
41044;BME280;51680;49.806;18.774;2023-03-22T08:44:20;97154.22;;;18.93;55.90
41044;BME280;51680;49.806;18.774;2023-03-22T08:47:22;97154.97;;;19.28;55.55
41044;BME280;51680;49.806;18.774;2023-03-22T08:50:28;97160.72;;;19.24;54.65
41044;BME280;51680;49.806;18.774;2023-03-22T08:53:44;97166.63;;;19.18;55.19
41044;BME280;51680;49.806;18.774;2023-03-22T08:57:14;97156.94;;;19.01;54.79
41044;BME280;51680;49.806;18.774;2023-03-22T09:00:29;97173.59;;;18.76;56.41
41044;BME280;51680;49.806;18.774;2023-03-22T09:03:42;97171.19;;;18.65;56.14
41044;BME280;51680;49.806;18.774;2023-03-22T09:06:44;97171.81;;;18.59;56.26
41044;BME280;51680;49.806;18.774;2023-03-22T09:09:48;97173.63;;;18.41;56.55
41044;BME280;51680;49.806;18.774;2023-03-22T09:12:50;97169.88;;;18.16;57.04
41044;BME280;51680;49.806;18.774;2023-03-22T09:15:52;97177.25;;;17.95;57.06
41044;BME280;51680;49.806;18.774;2023-03-22T09:19:00;97187.25;;;17.74;57.58
41044;BME280;51680;49.806;18.774;2023-03-22T09:22:02;97173.84;;;17.58;57.53
41044;BME280;51680;49.806;18.774;2023-03-22T09:25:14;97176.44;;;17.40;58.16
41044;BME280;51680;49.806;18.774;2023-03-22T09:28:18;97176.19;;;17.24;58.48
41044;BME280;51680;49.806;18.774;2023-03-22T09:31:20;97173.69;;;17.23;58.70
41044;BME280;51680;49.806;18.774;2023-03-22T09:34:32;97173.03;;;17.11;58.82
41044;BME280;51680;49.806;18.774;2023-03-22T09:37:34;97164.59;;;16.98;58.99
41044;BME280;51680;49.806;18.774;2023-03-22T09:40:42;97163.66;;;16.90;57.99
41044;BME280;51680;49.806;18.774;2023-03-22T09:43:49;97166.00;;;16.83;59.11
41044;BME280;51680;49.806;18.774;2023-03-22T09:46:54;97161.44;;;16.85;59.94
41044;BME280;51680;49.806;18.774;2023-03-22T09:50:05;97158.09;;;16.83;58.68
41044;BME280;51680;49.806;18.774;2023-03-22T09:53:10;97154.66;;;16.73;59.48
41044;BME280;51680;49.806;18.774;2023-03-22T09:56:19;97152.16;;;16.72;58.32
41044;BME280;51680;49.806;18.774;2023-03-22T09:59:29;97146.34;;;16.78;58.54
41044;BME280;51680;49.806;18.774;2023-03-22T10:02:44;97139.66;;;16.83;57.14
41044;BME280;51680;49.806;18.774;2023-03-22T10:05:50;97146.03;;;16.90;58.63
41044;BME280;51680;49.806;18.774;2023-03-22T10:08:59;97144.19;;;17.00;58.08
41044;BME280;51680;49.806;18.774;2023-03-22T10:12:13;97137.22;;;17.09;57.15
41044;BME280;51680;49.806;18.774;2023-03-22T10:15:19;97141.50;;;17.19;58.03
41044;BME280;51680;49.806;18.774;2023-03-22T10:18:24;97132.94;;;16.98;57.67
41044;BME280;51680;49.806;18.774;2023-03-22T10:21:27;97127.97;;;16.95;58.59
41044;BME280;51680;49.806;18.774;2023-03-22T10:24:32;97135.16;;;17.03;57.75
41044;BME280;51680;49.806;18.774;2023-03-22T10:27:36;97126.88;;;16.88;57.18
41044;BME280;51680;49.806;18.774;2023-03-22T10:30:39;97122.78;;;17.03;58.32
41044;BME280;51680;49.806;18.774;2023-03-22T10:33:45;97123.56;;;17.23;57.33
41044;BME280;51680;49.806;18.774;2023-03-22T10:36:51;97117.63;;;17.21;57.32
41044;BME280;51680;49.806;18.774;2023-03-22T10:39:54;97114.25;;;17.28;56.90
41044;BME280;51680;49.806;18.774;2023-03-22T10:43:01;97111.88;;;16.89;55.06
41044;BME280;51680;49.806;18.774;2023-03-22T10:46:06;97103.50;;;17.03;56.26
41044;BME280;51680;49.806;18.774;2023-03-22T10:49:21;97109.25;;;17.25;55.56
41044;BME280;51680;49.806;18.774;2023-03-22T10:52:35;97107.00;;;17.30;54.40
41044;BME280;51680;49.806;18.774;2023-03-22T10:55:39;97102.31;;;17.51;54.31
41044;BME280;51680;49.806;18.774;2023-03-22T10:58:42;97100.34;;;17.80;54.73
41044;BME280;51680;49.806;18.774;2023-03-22T11:01:44;97100.81;;;18.28;54.20
41044;BME280;51680;49.806;18.774;2023-03-22T11:04:47;97102.94;;;18.07;53.14
41044;BME280;51680;49.806;18.774;2023-03-22T11:07:50;97101.13;;;18.25;53.31
41044;BME280;51680;49.806;18.774;2023-03-22T11:10:52;97092.91;;;18.28;52.97
41044;BME280;51680;49.806;18.774;2023-03-22T11:14:01;97095.38;;;18.48;53.30
41044;BME280;51680;49.806;18.774;2023-03-22T11:17:07;97088.75;;;18.69;52.64
41044;BME280;51680;49.806;18.774;2023-03-22T11:20:14;97095.25;;;19.00;52.45
41044;BME280;51680;49.806;18.774;2023-03-22T11:23:18;97086.59;;;19.24;51.36
41044;BME280;51680;49.806;18.774;2023-03-22T11:26:28;97081.00;;;19.27;50.84
41044;BME280;51680;49.806;18.774;2023-03-22T11:29:39;97077.41;;;19.36;50.05
41044;BME280;51680;49.806;18.774;2023-03-22T11:32:42;97068.97;;;19.07;51.64
41044;BME280;51680;49.806;18.774;2023-03-22T11:35:46;97072.25;;;19.01;51.72
41044;BME280;51680;49.806;18.774;2023-03-22T11:38:56;97072.84;;;19.20;50.63
41044;BME280;51680;49.806;18.774;2023-03-22T11:41:59;97069.25;;;18.96;51.45
41044;BME280;51680;49.806;18.774;2023-03-22T11:45:05;97073.94;;;19.10;51.38
41044;BME280;51680;49.806;18.774;2023-03-22T11:48:12;97067.50;;;19.12;51.94
41044;BME280;51680;49.806;18.774;2023-03-22T11:51:17;97055.69;;;18.99;50.45
41044;BME280;51680;49.806;18.774;2023-03-22T11:54:28;97064.78;;;18.96;51.78
41044;BME280;51680;49.806;18.774;2023-03-22T11:57:32;97059.69;;;19.03;51.70
41044;BME280;51680;49.806;18.774;2023-03-22T12:00:36;97061.25;;;19.13;51.53
41044;BME280;51680;49.806;18.774;2023-03-22T12:03:42;97051.25;;;19.25;50.93
41044;BME280;51680;49.806;18.774;2023-03-22T12:06:45;97048.59;;;19.25;51.46
41044;BME280;51680;49.806;18.774;2023-03-22T12:09:50;97042.31;;;19.34;51.25
41044;BME280;51680;49.806;18.774;2023-03-22T12:12:57;97036.41;;;19.48;50.97
41044;BME280;51680;49.806;18.774;2023-03-22T12:16:04;97035.91;;;19.44;49.75
41044;BME280;51680;49.806;18.774;2023-03-22T12:19:16;97037.81;;;19.26;49.58
41044;BME280;51680;49.806;18.774;2023-03-22T12:22:23;97042.38;;;19.16;50.96
41044;BME280;51680;49.806;18.774;2023-03-22T12:25:28;97032.56;;;19.34;51.23
41044;BME280;51680;49.806;18.774;2023-03-22T12:28:35;97035.09;;;19.52;50.75
41044;BME280;51680;49.806;18.774;2023-03-22T12:31:44;97015.44;;;19.62;50.02
41044;BME280;51680;49.806;18.774;2023-03-22T12:34:50;97016.28;;;19.79;50.95
41044;BME280;51680;49.806;18.774;2023-03-22T12:37:55;97009.84;;;19.89;49.20
41044;BME280;51680;49.806;18.774;2023-03-22T12:41:01;97017.44;;;19.76;49.87
41044;BME280;51680;49.806;18.774;2023-03-22T12:44:09;97021.41;;;19.72;48.28
41044;BME280;51680;49.806;18.774;2023-03-22T12:47:20;97015.91;;;19.66;49.00
41044;BME280;51680;49.806;18.774;2023-03-22T12:50:28;97013.13;;;19.83;49.67
41044;BME280;51680;49.806;18.774;2023-03-22T12:53:52;97014.94;;;19.91;49.36
41044;BME280;51680;49.806;18.774;2023-03-22T12:56:56;97004.22;;;19.84;49.11
41044;BME280;51680;49.806;18.774;2023-03-22T13:00:04;97001.53;;;19.92;48.00
41044;BME280;51680;49.806;18.774;2023-03-22T13:03:23;97001.03;;;20.05;46.85
41044;BME280;51680;49.806;18.774;2023-03-22T13:06:56;96993.66;;;20.08;47.25
41044;BME280;51680;49.806;18.774;2023-03-22T13:09:59;97001.41;;;20.02;48.30
41044;BME280;51680;49.806;18.774;2023-03-22T13:13:09;96989.63;;;20.04;46.91
41044;BME280;51680;49.806;18.774;2023-03-22T13:16:18;96990.81;;;20.02;46.52
41044;BME280;51680;49.806;18.774;2023-03-22T13:19:29;96989.81;;;20.03;45.72
41044;BME280;51680;49.806;18.774;2023-03-22T13:22:57;96985.97;;;20.05;44.18
41044;BME280;51680;49.806;18.774;2023-03-22T13:26:02;96983.53;;;20.12;47.01
41044;BME280;51680;49.806;18.774;2023-03-22T13:29:09;96984.19;;;20.14;46.66
41044;BME280;51680;49.806;18.774;2023-03-22T13:32:27;96976.56;;;20.19;45.57
41044;BME280;51680;49.806;18.774;2023-03-22T13:35:40;96972.59;;;20.23;44.83
41044;BME280;51680;49.806;18.774;2023-03-22T13:38:52;96976.88;;;20.32;45.00
41044;BME280;51680;49.806;18.774;2023-03-22T13:42:06;96964.28;;;20.34;44.30
41044;BME280;51680;49.806;18.774;2023-03-22T13:45:28;96953.00;;;20.40;44.50
41044;BME280;51680;49.806;18.774;2023-03-22T13:48:41;96964.25;;;20.50;44.28
41044;BME280;51680;49.806;18.774;2023-03-22T13:51:45;96957.94;;;20.59;45.38
41044;BME280;51680;49.806;18.774;2023-03-22T13:54:48;96952.09;;;20.63;46.00
41044;BME280;51680;49.806;18.774;2023-03-22T13:57:57;96951.63;;;20.60;43.40
41044;BME280;51680;49.806;18.774;2023-03-22T14:00:59;96941.03;;;20.52;44.45
41044;BME280;51680;49.806;18.774;2023-03-22T14:04:05;96945.38;;;20.37;43.44
41044;BME280;51680;49.806;18.774;2023-03-22T14:07:20;96942.56;;;20.38;42.42
41044;BME280;51680;49.806;18.774;2023-03-22T14:10:25;96947.34;;;20.43;44.88
41044;BME280;51680;49.806;18.774;2023-03-22T14:13:31;96932.75;;;20.55;44.19
41044;BME280;51680;49.806;18.774;2023-03-22T14:16:37;96942.03;;;20.51;44.35
41044;BME280;51680;49.806;18.774;2023-03-22T14:19:41;96936.25;;;20.47;45.21
41044;BME280;51680;49.806;18.774;2023-03-22T14:22:47;96937.72;;;20.50;44.53
41044;BME280;51680;49.806;18.774;2023-03-22T14:25:50;96940.06;;;20.45;45.36
41044;BME280;51680;49.806;18.774;2023-03-22T14:29:05;96927.66;;;20.37;44.35
41044;BME280;51680;49.806;18.774;2023-03-22T14:32:14;96939.75;;;20.32;44.39
41044;BME280;51680;49.806;18.774;2023-03-22T14:35:19;96936.63;;;20.20;45.78
41044;BME280;51680;49.806;18.774;2023-03-22T14:38:28;96931.50;;;19.95;45.12
41044;BME280;51680;49.806;18.774;2023-03-22T14:41:32;96932.66;;;19.92;46.08
41044;BME280;51680;49.806;18.774;2023-03-22T14:44:36;96941.91;;;19.88;45.76
41044;BME280;51680;49.806;18.774;2023-03-22T14:47:41;96932.47;;;19.86;45.63
41044;BME280;51680;49.806;18.774;2023-03-22T14:50:46;96935.81;;;19.88;46.15
41044;BME280;51680;49.806;18.774;2023-03-22T14:54:12;96926.88;;;19.89;46.19
41044;BME280;51680;49.806;18.774;2023-03-22T14:57:17;96930.03;;;19.84;46.30
41044;BME280;51680;49.806;18.774;2023-03-22T15:00:20;96925.03;;;19.81;46.39
41044;BME280;51680;49.806;18.774;2023-03-22T15:03:24;96917.59;;;19.69;46.17
41044;BME280;51680;49.806;18.774;2023-03-22T15:06:49;96918.91;;;19.65;46.06
41044;BME280;51680;49.806;18.774;2023-03-22T15:10:09;96912.28;;;19.61;45.21
41044;BME280;51680;49.806;18.774;2023-03-22T15:13:11;96908.47;;;19.55;46.35
41044;BME280;51680;49.806;18.774;2023-03-22T15:16:16;96914.13;;;19.52;46.38
41044;BME280;51680;49.806;18.774;2023-03-22T15:19:21;96918.09;;;19.48;45.53
41044;BME280;51680;49.806;18.774;2023-03-22T15:22:23;96916.41;;;19.39;45.82
41044;BME280;51680;49.806;18.774;2023-03-22T15:25:31;96915.91;;;19.36;44.45
41044;BME280;51680;49.806;18.774;2023-03-22T15:28:40;96918.25;;;19.39;45.41
41044;BME280;51680;49.806;18.774;2023-03-22T15:31:45;96923.19;;;19.34;46.09
41044;BME280;51680;49.806;18.774;2023-03-22T15:34:49;96921.69;;;19.31;45.95
41044;BME280;51680;49.806;18.774;2023-03-22T15:37:52;96924.97;;;19.17;45.96
41044;BME280;51680;49.806;18.774;2023-03-22T15:40:55;96926.59;;;19.10;46.45
41044;BME280;51680;49.806;18.774;2023-03-22T15:44:01;96918.81;;;19.09;46.58
41044;BME280;51680;49.806;18.774;2023-03-22T15:47:13;96917.13;;;19.00;45.57
41044;BME280;51680;49.806;18.774;2023-03-22T15:50:16;96919.25;;;18.96;46.75
41044;BME280;51680;49.806;18.774;2023-03-22T15:53:27;96908.84;;;18.87;45.91
41044;BME280;51680;49.806;18.774;2023-03-22T15:56:33;96911.63;;;18.85;46.68
41044;BME280;51680;49.806;18.774;2023-03-22T15:59:48;96912.75;;;18.75;45.93
41044;BME280;51680;49.806;18.774;2023-03-22T16:02:56;96906.81;;;18.73;47.32
41044;BME280;51680;49.806;18.774;2023-03-22T16:05:58;96919.63;;;18.60;47.27
41044;BME280;51680;49.806;18.774;2023-03-22T16:09:00;96910.72;;;18.61;47.43
41044;BME280;51680;49.806;18.774;2023-03-22T16:12:05;96915.19;;;18.60;47.52
41044;BME280;51680;49.806;18.774;2023-03-22T16:15:11;96913.34;;;18.53;47.33
41044;BME280;51680;49.806;18.774;2023-03-22T16:18:15;96924.22;;;18.50;47.72
41044;BME280;51680;49.806;18.774;2023-03-22T16:21:46;96919.88;;;18.41;47.07
41044;BME280;51680;49.806;18.774;2023-03-22T16:24:48;96923.81;;;18.37;47.98
41044;BME280;51680;49.806;18.774;2023-03-22T16:27:52;96916.22;;;18.34;48.01